sensor_id;sensor_type;location;lat;lon;timestamp;P1;durP1;ratioP1;P2;durP2;ratioP2
45490;SDS011;31237;45.586;13.782;2023-04-22T00:00:14;6.80;;;5.50;;
45490;SDS011;31237;45.586;13.782;2023-04-22T00:02:41;8.10;;;5.57;;
45490;SDS011;31237;45.586;13.782;2023-04-22T00:05:07;7.68;;;5.60;;
45490;SDS011;31237;45.586;13.782;2023-04-22T00:07:37;6.85;;;5.78;;
45490;SDS011;31237;45.586;13.782;2023-04-22T00:10:05;6.93;;;5.90;;
45490;SDS011;31237;45.586;13.782;2023-04-22T00:12:32;7.93;;;6.93;;
45490;SDS011;31237;45.586;13.782;2023-04-22T00:14:58;8.02;;;6.20;;
45490;SDS011;31237;45.586;13.782;2023-04-22T00:17:24;6.78;;;5.57;;
45490;SDS011;31237;45.586;13.782;2023-04-22T00:19:50;6.72;;;5.88;;
45490;SDS011;31237;45.586;13.782;2023-04-22T00:22:15;7.22;;;5.95;;
45490;SDS011;31237;45.586;13.782;2023-04-22T00:24:41;7.38;;;6.40;;
45490;SDS011;31237;45.586;13.782;2023-04-22T00:27:07;6.78;;;6.07;;
45490;SDS011;31237;45.586;13.782;2023-04-22T00:29:33;7.53;;;5.60;;
45490;SDS011;31237;45.586;13.782;2023-04-22T00:31:59;6.80;;;6.10;;
45490;SDS011;31237;45.586;13.782;2023-04-22T00:34:25;6.82;;;6.05;;
45490;SDS011;31237;45.586;13.782;2023-04-22T00:36:50;6.75;;;6.05;;
45490;SDS011;31237;45.586;13.782;2023-04-22T00:39:16;7.30;;;5.40;;
45490;SDS011;31237;45.586;13.782;2023-04-22T00:41:42;5.90;;;5.15;;
45490;SDS011;31237;45.586;13.782;2023-04-22T00:44:08;7.40;;;5.65;;
45490;SDS011;31237;45.586;13.782;2023-04-22T00:46:35;6.30;;;4.88;;
45490;SDS011;31237;45.586;13.782;2023-04-22T00:49:02;6.22;;;5.35;;
45490;SDS011;31237;45.586;13.782;2023-04-22T00:51:29;7.00;;;5.35;;
45490;SDS011;31237;45.586;13.782;2023-04-22T00:53:55;6.32;;;5.25;;
45490;SDS011;31237;45.586;13.782;2023-04-22T00:56:21;6.55;;;5.00;;
45490;SDS011;31237;45.586;13.782;2023-04-22T00:58:55;7.13;;;5.32;;
45490;SDS011;31237;45.586;13.782;2023-04-22T01:01:21;6.72;;;5.30;;
45490;SDS011;31237;45.586;13.782;2023-04-22T01:03:47;7.15;;;5.82;;
45490;SDS011;31237;45.586;13.782;2023-04-22T01:06:15;6.78;;;5.72;;
45490;SDS011;31237;45.586;13.782;2023-04-22T01:08:43;7.30;;;5.63;;
45490;SDS011;31237;45.586;13.782;2023-04-22T01:11:10;6.88;;;5.18;;
45490;SDS011;31237;45.586;13.782;2023-04-22T01:13:36;8.18;;;5.32;;
45490;SDS011;31237;45.586;13.782;2023-04-22T01:16:02;6.93;;;5.22;;
45490;SDS011;31237;45.586;13.782;2023-04-22T01:18:32;6.57;;;5.43;;
45490;SDS011;31237;45.586;13.782;2023-04-22T01:20:59;8.20;;;5.50;;
45490;SDS011;31237;45.586;13.782;2023-04-22T01:23:26;7.68;;;5.70;;
45490;SDS011;31237;45.586;13.782;2023-04-22T01:25:52;7.70;;;5.20;;
45490;SDS011;31237;45.586;13.782;2023-04-22T01:28:18;6.55;;;5.20;;
45490;SDS011;31237;45.586;13.782;2023-04-22T01:30:44;6.97;;;5.40;;
45490;SDS011;31237;45.586;13.782;2023-04-22T01:33:12;5.82;;;4.90;;
45490;SDS011;31237;45.586;13.782;2023-04-22T01:35:40;7.75;;;5.57;;
45490;SDS011;31237;45.586;13.782;2023-04-22T01:38:07;7.57;;;5.72;;
45490;SDS011;31237;45.586;13.782;2023-04-22T01:40:34;6.97;;;5.53;;
45490;SDS011;31237;45.586;13.782;2023-04-22T01:43:00;6.03;;;5.30;;
45490;SDS011;31237;45.586;13.782;2023-04-22T01:45:26;7.68;;;5.47;;
45490;SDS011;31237;45.586;13.782;2023-04-22T01:47:52;7.93;;;5.88;;
45490;SDS011;31237;45.586;13.782;2023-04-22T01:50:18;7.18;;;5.40;;
45490;SDS011;31237;45.586;13.782;2023-04-22T01:52:44;7.55;;;5.95;;
45490;SDS011;31237;45.586;13.782;2023-04-22T01:55:10;6.68;;;5.50;;
45490;SDS011;31237;45.586;13.782;2023-04-22T01:57:36;7.05;;;5.88;;
45490;SDS011;31237;45.586;13.782;2023-04-22T02:00:02;7.55;;;5.75;;
45490;SDS011;31237;45.586;13.782;2023-04-22T02:02:29;8.35;;;5.85;;
45490;SDS011;31237;45.586;13.782;2023-04-22T02:04:55;8.30;;;5.93;;
45490;SDS011;31237;45.586;13.782;2023-04-22T02:07:21;7.05;;;5.35;;
45490;SDS011;31237;45.586;13.782;2023-04-22T02:09:48;7.80;;;5.63;;
45490;SDS011;31237;45.586;13.782;2023-04-22T02:12:14;6.28;;;5.10;;
45490;SDS011;31237;45.586;13.782;2023-04-22T02:14:40;6.65;;;4.70;;
45490;SDS011;31237;45.586;13.782;2023-04-22T02:17:05;6.40;;;5.30;;
45490;SDS011;31237;45.586;13.782;2023-04-22T02:19:31;6.85;;;5.57;;
45490;SDS011;31237;45.586;13.782;2023-04-22T02:21:57;6.32;;;4.90;;
45490;SDS011;31237;45.586;13.782;2023-04-22T02:24:23;8.15;;;5.03;;
45490;SDS011;31237;45.586;13.782;2023-04-22T02:26:48;7.30;;;5.30;;
45490;SDS011;31237;45.586;13.782;2023-04-22T02:29:14;7.85;;;4.95;;
45490;SDS011;31237;45.586;13.782;2023-04-22T02:31:40;7.25;;;5.28;;
45490;SDS011;31237;45.586;13.782;2023-04-22T02:34:06;8.05;;;5.40;;
45490;SDS011;31237;45.586;13.782;2023-04-22T02:36:32;7.72;;;5.90;;
45490;SDS011;31237;45.586;13.782;2023-04-22T02:38:59;7.90;;;6.13;;
45490;SDS011;31237;45.586;13.782;2023-04-22T02:41:26;7.03;;;5.53;;
45490;SDS011;31237;45.586;13.782;2023-04-22T02:43:51;7.85;;;6.22;;
45490;SDS011;31237;45.586;13.782;2023-04-22T02:46:17;9.18;;;5.63;;
45490;SDS011;31237;45.586;13.782;2023-04-22T02:48:43;6.80;;;5.80;;
45490;SDS011;31237;45.586;13.782;2023-04-22T02:51:08;7.15;;;6.05;;
45490;SDS011;31237;45.586;13.782;2023-04-22T02:53:35;6.90;;;5.63;;
45490;SDS011;31237;45.586;13.782;2023-04-22T02:56:00;7.80;;;6.13;;
45490;SDS011;31237;45.586;13.782;2023-04-22T02:58:26;7.45;;;5.57;;
45490;SDS011;31237;45.586;13.782;2023-04-22T03:00:52;6.40;;;5.65;;
45490;SDS011;31237;45.586;13.782;2023-04-22T03:03:18;6.82;;;5.53;;
45490;SDS011;31237;45.586;13.782;2023-04-22T03:05:43;9.18;;;6.22;;
45490;SDS011;31237;45.586;13.782;2023-04-22T03:08:09;7.82;;;6.05;;
45490;SDS011;31237;45.586;13.782;2023-04-22T03:10:35;6.95;;;5.47;;
45490;SDS011;31237;45.586;13.782;2023-04-22T03:13:01;7.25;;;5.57;;
45490;SDS011;31237;45.586;13.782;2023-04-22T03:15:27;7.32;;;5.80;;
45490;SDS011;31237;45.586;13.782;2023-04-22T03:17:52;7.10;;;5.55;;
45490;SDS011;31237;45.586;13.782;2023-04-22T03:20:18;7.38;;;5.35;;
45490;SDS011;31237;45.586;13.782;2023-04-22T03:22:44;7.63;;;5.20;;
45490;SDS011;31237;45.586;13.782;2023-04-22T03:25:10;7.20;;;5.45;;
45490;SDS011;31237;45.586;13.782;2023-04-22T03:27:36;7.10;;;5.90;;
45490;SDS011;31237;45.586;13.782;2023-04-22T03:30:02;8.05;;;5.68;;
45490;SDS011;31237;45.586;13.782;2023-04-22T03:32:29;7.47;;;5.60;;
45490;SDS011;31237;45.586;13.782;2023-04-22T03:34:54;8.07;;;5.72;;
45490;SDS011;31237;45.586;13.782;2023-04-22T03:37:20;8.15;;;5.30;;
45490;SDS011;31237;45.586;13.782;2023-04-22T03:39:46;7.25;;;5.63;;
45490;SDS011;31237;45.586;13.782;2023-04-22T03:42:12;7.57;;;5.60;;
45490;SDS011;31237;45.586;13.782;2023-04-22T03:44:38;14.52;;;8.27;;
45490;SDS011;31237;45.586;13.782;2023-04-22T03:47:04;7.10;;;5.68;;
45490;SDS011;31237;45.586;13.782;2023-04-22T03:49:30;8.13;;;5.65;;
45490;SDS011;31237;45.586;13.782;2023-04-22T03:51:56;7.03;;;5.32;;
45490;SDS011;31237;45.586;13.782;2023-04-22T03:54:22;6.78;;;5.35;;
45490;SDS011;31237;45.586;13.782;2023-04-22T03:56:48;7.50;;;5.45;;
45490;SDS011;31237;45.586;13.782;2023-04-22T03:59:14;7.88;;;6.03;;
45490;SDS011;31237;45.586;13.782;2023-04-22T04:01:40;7.75;;;5.80;;
45490;SDS011;31237;45.586;13.782;2023-04-22T04:04:05;8.02;;;5.72;;
45490;SDS011;31237;45.586;13.782;2023-04-22T04:06:31;7.95;;;5.93;;
45490;SDS011;31237;45.586;13.782;2023-04-22T04:08:57;7.13;;;5.95;;
45490;SDS011;31237;45.586;13.782;2023-04-22T04:11:23;7.95;;;5.75;;
45490;SDS011;31237;45.586;13.782;2023-04-22T04:13:49;7.43;;;5.53;;
45490;SDS011;31237;45.586;13.782;2023-04-22T04:16:14;8.82;;;6.10;;
45490;SDS011;31237;45.586;13.782;2023-04-22T04:18:40;6.47;;;5.38;;
45490;SDS011;31237;45.586;13.782;2023-04-22T04:21:06;7.30;;;5.97;;
45490;SDS011;31237;45.586;13.782;2023-04-22T04:23:32;7.13;;;5.88;;
45490;SDS011;31237;45.586;13.782;2023-04-22T04:25:58;7.47;;;6.05;;
45490;SDS011;31237;45.586;13.782;2023-04-22T04:28:26;7.13;;;6.20;;
45490;SDS011;31237;45.586;13.782;2023-04-22T04:30:56;7.03;;;6.10;;
45490;SDS011;31237;45.586;13.782;2023-04-22T04:33:22;7.85;;;5.53;;
45490;SDS011;31237;45.586;13.782;2023-04-22T04:35:47;7.00;;;5.63;;
45490;SDS011;31237;45.586;13.782;2023-04-22T04:38:13;7.50;;;6.18;;
45490;SDS011;31237;45.586;13.782;2023-04-22T04:40:39;7.65;;;5.50;;
45490;SDS011;31237;45.586;13.782;2023-04-22T04:43:09;10.13;;;5.85;;
45490;SDS011;31237;45.586;13.782;2023-04-22T04:45:36;7.43;;;6.03;;
45490;SDS011;31237;45.586;13.782;2023-04-22T04:48:03;8.73;;;5.45;;
45490;SDS011;31237;45.586;13.782;2023-04-22T04:50:31;8.05;;;6.60;;
45490;SDS011;31237;45.586;13.782;2023-04-22T04:52:57;8.05;;;5.82;;
45490;SDS011;31237;45.586;13.782;2023-04-22T04:55:23;9.70;;;5.97;;
45490;SDS011;31237;45.586;13.782;2023-04-22T04:57:48;7.00;;;5.63;;
45490;SDS011;31237;45.586;13.782;2023-04-22T05:00:14;7.32;;;5.70;;
45490;SDS011;31237;45.586;13.782;2023-04-22T05:02:40;8.13;;;5.60;;
45490;SDS011;31237;45.586;13.782;2023-04-22T05:05:06;8.32;;;5.55;;
45490;SDS011;31237;45.586;13.782;2023-04-22T05:07:32;6.82;;;5.45;;
45490;SDS011;31237;45.586;13.782;2023-04-22T05:09:58;7.43;;;5.35;;
45490;SDS011;31237;45.586;13.782;2023-04-22T05:12:24;7.85;;;6.03;;
45490;SDS011;31237;45.586;13.782;2023-04-22T05:14:50;7.70;;;5.90;;
45490;SDS011;31237;45.586;13.782;2023-04-22T05:17:17;7.20;;;5.85;;
45490;SDS011;31237;45.586;13.782;2023-04-22T05:19:43;8.13;;;6.75;;
45490;SDS011;31237;45.586;13.782;2023-04-22T05:22:08;5.95;;;5.15;;
45490;SDS011;31237;45.586;13.782;2023-04-22T05:24:34;6.80;;;5.57;;
45490;SDS011;31237;45.586;13.782;2023-04-22T05:27:00;7.68;;;5.57;;
45490;SDS011;31237;45.586;13.782;2023-04-22T05:29:26;7.50;;;5.85;;
45490;SDS011;31237;45.586;13.782;2023-04-22T05:31:52;6.25;;;5.30;;
45490;SDS011;31237;45.586;13.782;2023-04-22T05:34:18;7.13;;;5.15;;
45490;SDS011;31237;45.586;13.782;2023-04-22T05:36:43;6.45;;;5.38;;
45490;SDS011;31237;45.586;13.782;2023-04-22T05:39:09;6.68;;;5.40;;
45490;SDS011;31237;45.586;13.782;2023-04-22T05:41:35;9.57;;;5.50;;
45490;SDS011;31237;45.586;13.782;2023-04-22T05:44:01;5.65;;;4.90;;
45490;SDS011;31237;45.586;13.782;2023-04-22T05:46:26;7.53;;;5.22;;
45490;SDS011;31237;45.586;13.782;2023-04-22T05:48:52;7.97;;;5.20;;
45490;SDS011;31237;45.586;13.782;2023-04-22T05:51:19;8.20;;;5.25;;
45490;SDS011;31237;45.586;13.782;2023-04-22T05:53:45;5.68;;;4.82;;
45490;SDS011;31237;45.586;13.782;2023-04-22T05:56:11;7.00;;;5.07;;
45490;SDS011;31237;45.586;13.782;2023-04-22T05:58:37;6.88;;;5.20;;
45490;SDS011;31237;45.586;13.782;2023-04-22T06:01:02;7.60;;;5.22;;
45490;SDS011;31237;45.586;13.782;2023-04-22T06:03:28;8.20;;;5.32;;
45490;SDS011;31237;45.586;13.782;2023-04-22T06:05:54;8.75;;;5.10;;
45490;SDS011;31237;45.586;13.782;2023-04-22T06:08:19;6.60;;;5.47;;
45490;SDS011;31237;45.586;13.782;2023-04-22T06:10:45;7.28;;;5.55;;
45490;SDS011;31237;45.586;13.782;2023-04-22T06:13:11;10.70;;;6.82;;
45490;SDS011;31237;45.586;13.782;2023-04-22T06:15:36;7.38;;;5.35;;
45490;SDS011;31237;45.586;13.782;2023-04-22T06:18:02;8.27;;;5.22;;
45490;SDS011;31237;45.586;13.782;2023-04-22T06:20:28;6.32;;;4.97;;
45490;SDS011;31237;45.586;13.782;2023-04-22T06:22:56;7.97;;;5.25;;
45490;SDS011;31237;45.586;13.782;2023-04-22T06:25:23;7.10;;;4.82;;
45490;SDS011;31237;45.586;13.782;2023-04-22T06:27:48;8.00;;;5.53;;
45490;SDS011;31237;45.586;13.782;2023-04-22T06:30:14;6.03;;;5.00;;
45490;SDS011;31237;45.586;13.782;2023-04-22T06:32:40;6.78;;;5.55;;
45490;SDS011;31237;45.586;13.782;2023-04-22T06:35:06;6.57;;;4.90;;
45490;SDS011;31237;45.586;13.782;2023-04-22T06:37:32;7.45;;;5.22;;
45490;SDS011;31237;45.586;13.782;2023-04-22T06:39:57;6.63;;;4.97;;
45490;SDS011;31237;45.586;13.782;2023-04-22T06:42:23;6.95;;;4.97;;
45490;SDS011;31237;45.586;13.782;2023-04-22T06:44:49;6.68;;;5.15;;
45490;SDS011;31237;45.586;13.782;2023-04-22T06:47:14;7.97;;;5.70;;
45490;SDS011;31237;45.586;13.782;2023-04-22T06:49:40;8.52;;;5.10;;
45490;SDS011;31237;45.586;13.782;2023-04-22T06:52:07;7.28;;;5.10;;
45490;SDS011;31237;45.586;13.782;2023-04-22T06:54:32;6.93;;;5.32;;
45490;SDS011;31237;45.586;13.782;2023-04-22T06:56:58;5.78;;;5.15;;
45490;SDS011;31237;45.586;13.782;2023-04-22T06:59:24;8.45;;;5.57;;
45490;SDS011;31237;45.586;13.782;2023-04-22T07:01:49;8.40;;;5.70;;
45490;SDS011;31237;45.586;13.782;2023-04-22T07:04:15;7.38;;;5.53;;
45490;SDS011;31237;45.586;13.782;2023-04-22T07:06:41;8.70;;;5.80;;
45490;SDS011;31237;45.586;13.782;2023-04-22T07:09:07;6.43;;;5.50;;
45490;SDS011;31237;45.586;13.782;2023-04-22T07:11:33;6.25;;;5.30;;
45490;SDS011;31237;45.586;13.782;2023-04-22T07:13:59;7.53;;;5.32;;
45490;SDS011;31237;45.586;13.782;2023-04-22T07:16:25;6.35;;;5.50;;
45490;SDS011;31237;45.586;13.782;2023-04-22T07:18:52;6.55;;;5.45;;
45490;SDS011;31237;45.586;13.782;2023-04-22T07:21:17;6.05;;;4.85;;
45490;SDS011;31237;45.586;13.782;2023-04-22T07:23:43;5.95;;;4.82;;
45490;SDS011;31237;45.586;13.782;2023-04-22T07:26:09;6.65;;;4.80;;
45490;SDS011;31237;45.586;13.782;2023-04-22T07:28:34;6.75;;;5.18;;
45490;SDS011;31237;45.586;13.782;2023-04-22T07:31:01;6.68;;;4.43;;
45490;SDS011;31237;45.586;13.782;2023-04-22T07:33:27;6.00;;;4.95;;
45490;SDS011;31237;45.586;13.782;2023-04-22T07:35:53;5.60;;;4.47;;
45490;SDS011;31237;45.586;13.782;2023-04-22T07:38:18;6.72;;;4.60;;
45490;SDS011;31237;45.586;13.782;2023-04-22T07:40:44;7.57;;;4.93;;
45490;SDS011;31237;45.586;13.782;2023-04-22T07:43:11;5.28;;;4.38;;
45490;SDS011;31237;45.586;13.782;2023-04-22T07:45:36;5.32;;;4.68;;
45490;SDS011;31237;45.586;13.782;2023-04-22T07:48:03;4.95;;;4.07;;
45490;SDS011;31237;45.586;13.782;2023-04-22T07:50:28;6.10;;;4.50;;
45490;SDS011;31237;45.586;13.782;2023-04-22T07:52:54;7.25;;;5.03;;
45490;SDS011;31237;45.586;13.782;2023-04-22T07:55:20;6.47;;;5.53;;
45490;SDS011;31237;45.586;13.782;2023-04-22T07:57:46;5.28;;;4.72;;
45490;SDS011;31237;45.586;13.782;2023-04-22T08:00:11;5.82;;;4.90;;
45490;SDS011;31237;45.586;13.782;2023-04-22T08:02:38;6.45;;;5.22;;
45490;SDS011;31237;45.586;13.782;2023-04-22T08:05:05;6.63;;;5.25;;
45490;SDS011;31237;45.586;13.782;2023-04-22T08:07:31;7.20;;;5.35;;
45490;SDS011;31237;45.586;13.782;2023-04-22T08:09:56;6.40;;;4.47;;
45490;SDS011;31237;45.586;13.782;2023-04-22T08:12:22;6.80;;;5.50;;
45490;SDS011;31237;45.586;13.782;2023-04-22T08:14:48;6.50;;;5.75;;
45490;SDS011;31237;45.586;13.782;2023-04-22T08:17:13;6.25;;;4.93;;
45490;SDS011;31237;45.586;13.782;2023-04-22T08:19:39;5.38;;;4.43;;
45490;SDS011;31237;45.586;13.782;2023-04-22T08:22:05;5.32;;;4.22;;
45490;SDS011;31237;45.586;13.782;2023-04-22T08:24:31;7.97;;;5.38;;
45490;SDS011;31237;45.586;13.782;2023-04-22T08:26:56;7.03;;;5.60;;
45490;SDS011;31237;45.586;13.782;2023-04-22T08:29:22;6.88;;;5.40;;
45490;SDS011;31237;45.586;13.782;2023-04-22T08:31:48;6.72;;;5.45;;
45490;SDS011;31237;45.586;13.782;2023-04-22T08:34:14;8.13;;;5.38;;
45490;SDS011;31237;45.586;13.782;2023-04-22T08:36:40;6.68;;;5.25;;
45490;SDS011;31237;45.586;13.782;2023-04-22T08:39:06;7.88;;;5.60;;
45490;SDS011;31237;45.586;13.782;2023-04-22T08:41:33;8.55;;;4.88;;
45490;SDS011;31237;45.586;13.782;2023-04-22T08:43:59;6.70;;;5.18;;
45490;SDS011;31237;45.586;13.782;2023-04-22T08:46:25;7.22;;;5.38;;
45490;SDS011;31237;45.586;13.782;2023-04-22T08:48:52;6.32;;;5.28;;
45490;SDS011;31237;45.586;13.782;2023-04-22T08:51:18;7.68;;;5.18;;
45490;SDS011;31237;45.586;13.782;2023-04-22T08:53:45;7.00;;;5.75;;
45490;SDS011;31237;45.586;13.782;2023-04-22T08:56:11;7.53;;;5.97;;
45490;SDS011;31237;45.586;13.782;2023-04-22T08:58:38;7.88;;;5.75;;
45490;SDS011;31237;45.586;13.782;2023-04-22T09:01:05;7.10;;;5.45;;
45490;SDS011;31237;45.586;13.782;2023-04-22T09:03:32;8.20;;;5.43;;
45490;SDS011;31237;45.586;13.782;2023-04-22T09:06:03;7.68;;;5.35;;
45490;SDS011;31237;45.586;13.782;2023-04-22T09:08:30;9.70;;;5.50;;
45490;SDS011;31237;45.586;13.782;2023-04-22T09:10:57;5.50;;;4.50;;
45490;SDS011;31237;45.586;13.782;2023-04-22T09:13:24;5.55;;;4.85;;
45490;SDS011;31237;45.586;13.782;2023-04-22T09:15:50;6.22;;;4.60;;
45490;SDS011;31237;45.586;13.782;2023-04-22T09:18:17;6.40;;;5.28;;
45490;SDS011;31237;45.586;13.782;2023-04-22T09:20:45;5.28;;;4.28;;
45490;SDS011;31237;45.586;13.782;2023-04-22T09:23:12;6.25;;;5.10;;
45490;SDS011;31237;45.586;13.782;2023-04-22T09:25:38;5.55;;;4.38;;
45490;SDS011;31237;45.586;13.782;2023-04-22T09:28:06;5.05;;;4.10;;
45490;SDS011;31237;45.586;13.782;2023-04-22T09:30:36;6.63;;;4.43;;
45490;SDS011;31237;45.586;13.782;2023-04-22T09:33:03;5.95;;;4.13;;
45490;SDS011;31237;45.586;13.782;2023-04-22T09:35:36;5.93;;;4.70;;
45490;SDS011;31237;45.586;13.782;2023-04-22T09:38:07;5.93;;;4.70;;
45490;SDS011;31237;45.586;13.782;2023-04-22T09:40:35;6.00;;;4.70;;
45490;SDS011;31237;45.586;13.782;2023-04-22T09:43:02;5.65;;;4.63;;
45490;SDS011;31237;45.586;13.782;2023-04-22T09:48:02;6.97;;;4.95;;
45490;SDS011;31237;45.586;13.782;2023-04-22T09:50:28;6.18;;;4.97;;
45490;SDS011;31237;45.586;13.782;2023-04-22T09:53:04;6.47;;;5.13;;
45490;SDS011;31237;45.586;13.782;2023-04-22T09:55:32;6.10;;;5.10;;
45490;SDS011;31237;45.586;13.782;2023-04-22T09:58:10;6.30;;;4.75;;
45490;SDS011;31237;45.586;13.782;2023-04-22T10:00:44;7.00;;;4.72;;
45490;SDS011;31237;45.586;13.782;2023-04-22T10:03:11;6.35;;;5.07;;
45490;SDS011;31237;45.586;13.782;2023-04-22T10:05:37;5.13;;;4.57;;
45490;SDS011;31237;45.586;13.782;2023-04-22T10:08:03;5.95;;;5.03;;
45490;SDS011;31237;45.586;13.782;2023-04-22T10:10:29;5.70;;;4.50;;
45490;SDS011;31237;45.586;13.782;2023-04-22T10:12:55;5.97;;;4.70;;
45490;SDS011;31237;45.586;13.782;2023-04-22T10:15:22;4.85;;;4.00;;
45490;SDS011;31237;45.586;13.782;2023-04-22T10:17:49;5.95;;;4.47;;
45490;SDS011;31237;45.586;13.782;2023-04-22T10:20:17;5.15;;;4.35;;
45490;SDS011;31237;45.586;13.782;2023-04-22T10:22:45;6.57;;;4.53;;
45490;SDS011;31237;45.586;13.782;2023-04-22T10:25:20;6.15;;;4.50;;
45490;SDS011;31237;45.586;13.782;2023-04-22T10:27:53;5.40;;;4.72;;
45490;SDS011;31237;45.586;13.782;2023-04-22T10:30:27;5.90;;;4.50;;
45490;SDS011;31237;45.586;13.782;2023-04-22T10:32:54;5.47;;;4.50;;
45490;SDS011;31237;45.586;13.782;2023-04-22T10:35:25;5.30;;;4.43;;
45490;SDS011;31237;45.586;13.782;2023-04-22T10:37:53;6.13;;;4.33;;
45490;SDS011;31237;45.586;13.782;2023-04-22T10:40:19;6.20;;;4.65;;
45490;SDS011;31237;45.586;13.782;2023-04-22T10:42:49;7.00;;;5.15;;
45490;SDS011;31237;45.586;13.782;2023-04-22T10:45:17;5.95;;;4.50;;
45490;SDS011;31237;45.586;13.782;2023-04-22T10:47:43;6.55;;;4.47;;
45490;SDS011;31237;45.586;13.782;2023-04-22T10:50:22;6.07;;;4.43;;
45490;SDS011;31237;45.586;13.782;2023-04-22T10:53:00;5.68;;;4.20;;
45490;SDS011;31237;45.586;13.782;2023-04-22T10:56:01;5.28;;;4.75;;
45490;SDS011;31237;45.586;13.782;2023-04-22T10:58:42;6.03;;;4.95;;
45490;SDS011;31237;45.586;13.782;2023-04-22T11:01:13;7.63;;;5.05;;
45490;SDS011;31237;45.586;13.782;2023-04-22T11:03:39;5.82;;;5.22;;
45490;SDS011;31237;45.586;13.782;2023-04-22T11:06:14;6.28;;;4.78;;
45490;SDS011;31237;45.586;13.782;2023-04-22T11:08:45;7.43;;;5.43;;
45490;SDS011;31237;45.586;13.782;2023-04-22T11:11:18;5.70;;;4.22;;
45490;SDS011;31237;45.586;13.782;2023-04-22T11:13:44;6.40;;;5.15;;
45490;SDS011;31237;45.586;13.782;2023-04-22T11:16:14;5.70;;;4.50;;
45490;SDS011;31237;45.586;13.782;2023-04-22T11:18:40;6.93;;;5.00;;
45490;SDS011;31237;45.586;13.782;2023-04-22T11:21:06;6.10;;;4.70;;
45490;SDS011;31237;45.586;13.782;2023-04-22T11:23:32;5.53;;;4.60;;
45490;SDS011;31237;45.586;13.782;2023-04-22T11:25:59;5.45;;;4.82;;
45490;SDS011;31237;45.586;13.782;2023-04-22T11:28:27;6.07;;;4.47;;
45490;SDS011;31237;45.586;13.782;2023-04-22T11:31:06;7.43;;;4.97;;
45490;SDS011;31237;45.586;13.782;2023-04-22T11:33:35;7.20;;;4.70;;
45490;SDS011;31237;45.586;13.782;2023-04-22T11:36:03;6.55;;;4.30;;
45490;SDS011;31237;45.586;13.782;2023-04-22T11:38:29;6.18;;;4.63;;
45490;SDS011;31237;45.586;13.782;2023-04-22T11:40:55;6.90;;;4.82;;
45490;SDS011;31237;45.586;13.782;2023-04-22T11:43:24;5.28;;;4.20;;
45490;SDS011;31237;45.586;13.782;2023-04-22T11:45:50;5.63;;;4.32;;
45490;SDS011;31237;45.586;13.782;2023-04-22T11:48:16;6.43;;;5.40;;
45490;SDS011;31237;45.586;13.782;2023-04-22T11:50:42;6.28;;;4.32;;
45490;SDS011;31237;45.586;13.782;2023-04-22T11:53:18;5.18;;;4.00;;
45490;SDS011;31237;45.586;13.782;2023-04-22T11:55:50;6.32;;;4.32;;
45490;SDS011;31237;45.586;13.782;2023-04-22T11:58:23;7.07;;;4.75;;
45490;SDS011;31237;45.586;13.782;2023-04-22T12:00:51;5.05;;;4.22;;
45490;SDS011;31237;45.586;13.782;2023-04-22T12:03:19;6.53;;;4.75;;
45490;SDS011;31237;45.586;13.782;2023-04-22T12:05:52;6.43;;;5.10;;
45490;SDS011;31237;45.586;13.782;2023-04-22T12:08:33;5.78;;;4.50;;
45490;SDS011;31237;45.586;13.782;2023-04-22T12:11:11;6.72;;;5.10;;
45490;SDS011;31237;45.586;13.782;2023-04-22T12:16:04;6.88;;;4.90;;
45490;SDS011;31237;45.586;13.782;2023-04-22T12:18:37;6.75;;;5.60;;
45490;SDS011;31237;45.586;13.782;2023-04-22T12:21:11;5.93;;;5.18;;
45490;SDS011;31237;45.586;13.782;2023-04-22T12:23:48;7.10;;;5.68;;
45490;SDS011;31237;45.586;13.782;2023-04-22T12:26:15;7.18;;;5.70;;
45490;SDS011;31237;45.586;13.782;2023-04-22T12:28:43;7.80;;;5.32;;
45490;SDS011;31237;45.586;13.782;2023-04-22T12:31:10;7.53;;;5.38;;
45490;SDS011;31237;45.586;13.782;2023-04-22T12:33:36;7.20;;;5.30;;
45490;SDS011;31237;45.586;13.782;2023-04-22T12:36:03;6.30;;;5.28;;
45490;SDS011;31237;45.586;13.782;2023-04-22T12:38:29;7.35;;;5.78;;
45490;SDS011;31237;45.586;13.782;2023-04-22T12:40:56;5.95;;;4.97;;
45490;SDS011;31237;45.586;13.782;2023-04-22T12:43:22;6.70;;;5.38;;
45490;SDS011;31237;45.586;13.782;2023-04-22T12:45:48;7.78;;;5.60;;
45490;SDS011;31237;45.586;13.782;2023-04-22T12:48:14;8.55;;;5.75;;
45490;SDS011;31237;45.586;13.782;2023-04-22T12:50:40;8.05;;;6.30;;
45490;SDS011;31237;45.586;13.782;2023-04-22T12:53:06;7.93;;;5.75;;
45490;SDS011;31237;45.586;13.782;2023-04-22T12:55:32;6.57;;;5.88;;
45490;SDS011;31237;45.586;13.782;2023-04-22T12:57:58;7.78;;;5.97;;
45490;SDS011;31237;45.586;13.782;2023-04-22T13:00:24;7.63;;;6.57;;
45490;SDS011;31237;45.586;13.782;2023-04-22T13:02:50;8.95;;;5.88;;
45490;SDS011;31237;45.586;13.782;2023-04-22T13:05:16;7.55;;;6.00;;
45490;SDS011;31237;45.586;13.782;2023-04-22T13:07:44;7.25;;;6.30;;
45490;SDS011;31237;45.586;13.782;2023-04-22T13:10:11;6.82;;;6.07;;
45490;SDS011;31237;45.586;13.782;2023-04-22T13:12:39;16.00;;;11.70;;
45490;SDS011;31237;45.586;13.782;2023-04-22T13:15:05;8.57;;;6.65;;
45490;SDS011;31237;45.586;13.782;2023-04-22T13:17:34;9.25;;;7.13;;
45490;SDS011;31237;45.586;13.782;2023-04-22T13:20:00;12.00;;;8.52;;
45490;SDS011;31237;45.586;13.782;2023-04-22T13:22:28;18.33;;;11.13;;
45490;SDS011;31237;45.586;13.782;2023-04-22T13:24:54;12.20;;;8.27;;
45490;SDS011;31237;45.586;13.782;2023-04-22T13:27:20;13.50;;;9.73;;
45490;SDS011;31237;45.586;13.782;2023-04-22T13:29:45;11.82;;;9.40;;
45490;SDS011;31237;45.586;13.782;2023-04-22T13:32:11;10.57;;;8.15;;
45490;SDS011;31237;45.586;13.782;2023-04-22T13:34:38;10.45;;;7.95;;
45490;SDS011;31237;45.586;13.782;2023-04-22T13:37:04;11.70;;;9.93;;
45490;SDS011;31237;45.586;13.782;2023-04-22T13:39:30;12.10;;;9.80;;
45490;SDS011;31237;45.586;13.782;2023-04-22T13:41:57;12.27;;;10.07;;
45490;SDS011;31237;45.586;13.782;2023-04-22T13:44:23;11.77;;;8.98;;
45490;SDS011;31237;45.586;13.782;2023-04-22T13:46:48;10.63;;;9.00;;
45490;SDS011;31237;45.586;13.782;2023-04-22T13:49:14;11.43;;;9.98;;
45490;SDS011;31237;45.586;13.782;2023-04-22T13:51:40;10.82;;;9.60;;
45490;SDS011;31237;45.586;13.782;2023-04-22T13:54:06;12.20;;;8.88;;
45490;SDS011;31237;45.586;13.782;2023-04-22T13:56:31;13.10;;;11.13;;
45490;SDS011;31237;45.586;13.782;2023-04-22T13:58:57;12.63;;;8.90;;
45490;SDS011;31237;45.586;13.782;2023-04-22T14:01:24;17.60;;;12.45;;
45490;SDS011;31237;45.586;13.782;2023-04-22T14:03:50;17.77;;;12.80;;
45490;SDS011;31237;45.586;13.782;2023-04-22T14:06:16;13.45;;;11.00;;
45490;SDS011;31237;45.586;13.782;2023-04-22T14:08:42;14.05;;;10.38;;
45490;SDS011;31237;45.586;13.782;2023-04-22T14:11:08;15.77;;;12.40;;
45490;SDS011;31237;45.586;13.782;2023-04-22T14:13:35;14.70;;;11.20;;
45490;SDS011;31237;45.586;13.782;2023-04-22T14:16:04;12.27;;;9.95;;
45490;SDS011;31237;45.586;13.782;2023-04-22T14:21:02;12.23;;;9.15;;
45490;SDS011;31237;45.586;13.782;2023-04-22T14:23:39;9.80;;;7.75;;
45490;SDS011;31237;45.586;13.782;2023-04-22T14:26:06;12.10;;;9.85;;
45490;SDS011;31237;45.586;13.782;2023-04-22T14:28:33;11.20;;;8.68;;
45490;SDS011;31237;45.586;13.782;2023-04-22T14:30:59;15.20;;;9.32;;
45490;SDS011;31237;45.586;13.782;2023-04-22T14:33:25;12.77;;;10.05;;
45490;SDS011;31237;45.586;13.782;2023-04-22T14:35:52;11.05;;;8.48;;
45490;SDS011;31237;45.586;13.782;2023-04-22T14:38:18;11.23;;;8.85;;